createdAt,value
2022-08-25T00:01:30.017Z,21.77
2022-08-25T00:04:53.778Z,21.76
2022-08-25T00:08:16.007Z,21.73
2022-08-25T00:11:38.007Z,21.70
2022-08-25T00:14:58.990Z,21.69
2022-08-25T00:18:20.151Z,21.62
2022-08-25T00:21:41.981Z,21.57
2022-08-25T00:25:03.013Z,21.52
2022-08-25T00:28:23.998Z,21.47
2022-08-25T00:31:45.059Z,21.45
2022-08-25T00:35:06.991Z,21.44
2022-08-25T00:38:28.022Z,21.44
2022-08-25T00:41:50.012Z,21.41
2022-08-25T00:45:11.004Z,21.37
2022-08-25T00:48:32.002Z,21.36
2022-08-25T00:52:01.021Z,21.31
2022-08-25T00:55:34.012Z,21.29
2022-08-25T00:58:56.020Z,21.24
2022-08-25T01:02:19.045Z,21.25
2022-08-25T01:05:42.057Z,21.23
2022-08-25T01:09:04.011Z,21.23
2022-08-25T01:12:25.037Z,21.23
2022-08-25T01:15:49.070Z,21.21
2022-08-25T01:19:15.556Z,21.18
2022-08-25T01:22:35.994Z,21.14
2022-08-25T01:26:10.016Z,21.08
2022-08-25T01:29:33.040Z,21.03
2022-08-25T01:32:54.030Z,20.99
2022-08-25T01:36:15.031Z,20.96
2022-08-25T01:39:37.069Z,20.94
2022-08-25T01:43:26.034Z,20.90
2022-08-25T01:46:47.018Z,20.89
2022-08-25T01:50:08.037Z,20.87
2022-08-25T01:53:42.029Z,20.86
2022-08-25T01:57:03.036Z,20.86
2022-08-25T02:00:25.044Z,20.87
2022-08-25T02:03:46.409Z,20.86
2022-08-25T02:07:10.024Z,20.90
2022-08-25T02:10:31.038Z,20.91
2022-08-25T02:13:53.047Z,20.93
2022-08-25T02:17:14.058Z,20.95
2022-08-25T02:20:35.037Z,20.96
2022-08-25T02:23:56.038Z,20.98
2022-08-25T02:27:17.075Z,21.04
2022-08-25T02:30:38.192Z,21.08
2022-08-25T02:33:59.020Z,21.10
2022-08-25T02:37:21.050Z,21.09
2022-08-25T02:40:42.041Z,21.10
2022-08-25T02:44:04.040Z,21.10
2022-08-25T02:47:27.026Z,21.13
2022-08-25T02:50:41.053Z,21.13
2022-08-25T02:54:04.035Z,21.14
2022-08-25T02:57:25.070Z,21.18
2022-08-25T03:00:46.168Z,21.23
2022-08-25T03:04:07.054Z,21.30
2022-08-25T03:07:28.106Z,21.37
2022-08-25T03:10:54.058Z,21.42
2022-08-25T03:14:15.075Z,21.49
2022-08-25T03:17:36.067Z,21.56
2022-08-25T03:20:57.057Z,21.65
2022-08-25T03:24:19.064Z,21.73
2022-08-25T03:27:40.074Z,21.83
2022-08-25T03:31:01.062Z,21.92
2022-08-25T03:34:23.099Z,22.00
2022-08-25T03:37:44.055Z,22.08
2022-08-25T03:41:06.098Z,22.17
2022-08-25T03:44:28.049Z,22.25
2022-08-25T03:47:49.060Z,22.34
2022-08-25T03:51:10.048Z,22.43
2022-08-25T03:54:35.061Z,22.53
2022-08-25T03:57:56.059Z,22.62
2022-08-25T04:01:18.217Z,22.71
2022-08-25T04:04:39.079Z,22.80
2022-08-25T04:08:00.187Z,22.87
2022-08-25T04:11:27.088Z,22.96
2022-08-25T04:14:48.076Z,23.06
2022-08-25T04:18:11.078Z,23.15
2022-08-25T04:21:33.067Z,23.23
2022-08-25T04:24:54.065Z,23.32
2022-08-25T04:28:16.069Z,23.44
2022-08-25T04:31:37.101Z,23.53
2022-08-25T04:34:58.092Z,23.61
2022-08-25T04:38:19.118Z,23.71
2022-08-25T04:41:40.065Z,23.79
2022-08-25T04:45:01.108Z,23.88
2022-08-25T04:48:22.089Z,23.99
2022-08-25T04:51:49.102Z,24.08
2022-08-25T04:55:10.122Z,24.18
2022-08-25T04:58:31.111Z,24.32
2022-08-25T05:01:56.138Z,24.43
2022-08-25T05:05:17.101Z,24.52
2022-08-25T05:08:38.082Z,24.63
2022-08-25T05:11:59.089Z,24.75
2022-08-25T05:15:33.083Z,24.88
2022-08-25T05:18:55.096Z,25.00
2022-08-25T05:22:16.083Z,25.09
2022-08-25T05:25:38.124Z,25.22
2022-08-25T05:28:59.093Z,25.34
2022-08-25T05:32:20.103Z,25.46
2022-08-25T05:35:41.100Z,25.58
2022-08-25T05:39:02.124Z,25.67
2022-08-25T05:42:23.083Z,25.76
2022-08-25T05:45:38.170Z,25.86
2022-08-25T05:49:00.090Z,25.96
2022-08-25T05:52:21.110Z,26.08
2022-08-25T05:55:42.087Z,26.19
2022-08-25T05:59:07.333Z,26.29
2022-08-25T06:02:48.111Z,26.42
2022-08-25T06:06:19.096Z,26.52
2022-08-25T06:09:40.123Z,26.60
2022-08-25T06:13:02.123Z,26.68
2022-08-25T06:16:23.234Z,26.78
2022-08-25T06:19:44.109Z,26.88
2022-08-25T06:23:05.123Z,26.99
2022-08-25T06:26:27.110Z,27.08
2022-08-25T06:29:48.135Z,27.19
2022-08-25T06:33:14.107Z,27.29
2022-08-25T06:36:35.148Z,27.39
2022-08-25T06:39:56.213Z,27.52
2022-08-25T06:43:18.125Z,27.64
2022-08-25T06:46:41.160Z,27.74
2022-08-25T06:50:02.138Z,27.87
2022-08-25T06:53:23.130Z,27.98
2022-08-25T06:56:44.188Z,28.07
2022-08-25T07:00:05.118Z,28.19
2022-08-25T07:03:26.227Z,28.27
2022-08-25T07:06:48.129Z,28.33
2022-08-25T07:10:09.145Z,28.40
2022-08-25T07:13:30.130Z,28.49
2022-08-25T07:16:52.140Z,28.56
2022-08-25T07:20:13.655Z,28.63
2022-08-25T07:23:35.155Z,28.69
2022-08-25T07:26:57.132Z,28.77
2022-08-25T07:30:20.146Z,28.86
2022-08-25T07:33:41.124Z,28.95
2022-08-25T07:37:02.142Z,29.03
2022-08-25T07:40:32.202Z,29.18
2022-08-25T07:43:46.154Z,29.29
2022-08-25T07:47:07.165Z,29.36
2022-08-25T07:50:28.196Z,29.42
2022-08-25T07:53:49.187Z,29.50
2022-08-25T07:57:10.147Z,29.58
2022-08-25T08:00:34.152Z,29.64
2022-08-25T08:04:02.913Z,29.72
2022-08-25T08:07:41.139Z,29.78
2022-08-25T08:11:05.434Z,29.85
2022-08-25T08:14:26.151Z,29.97
2022-08-25T08:17:47.155Z,30.06
2022-08-25T08:21:09.173Z,30.11
2022-08-25T08:24:44.234Z,30.16
2022-08-25T08:28:07.245Z,30.25
2022-08-25T08:31:28.195Z,30.34
2022-08-25T08:34:51.383Z,30.34
2022-08-25T08:38:18.499Z,30.38
2022-08-25T08:42:26.175Z,30.43
2022-08-25T08:45:50.183Z,30.55
2022-08-25T08:49:13.227Z,30.70
2022-08-25T08:53:02.192Z,30.77
2022-08-25T08:56:30.655Z,30.84
2022-08-25T09:00:03.192Z,30.94
2022-08-25T09:03:37.259Z,31.08
2022-08-25T09:07:02.171Z,31.24
2022-08-25T09:10:24.159Z,31.26
2022-08-25T09:14:09.184Z,31.25
2022-08-25T09:18:09.550Z,31.28
2022-08-25T09:21:36.182Z,31.49
2022-08-25T09:25:54.214Z,31.77
2022-08-25T09:29:16.540Z,32.00
2022-08-25T09:33:12.997Z,32.11
2022-08-25T09:37:05.983Z,32.17
2022-08-25T09:40:33.431Z,32.21
2022-08-25T09:44:06.175Z,32.32
2022-08-25T09:47:39.189Z,32.42
2022-08-25T09:51:03.311Z,32.44
2022-08-25T09:54:44.396Z,32.58
2022-08-25T09:58:10.225Z,32.83
2022-08-25T10:01:35.232Z,33.01
2022-08-25T10:04:56.217Z,33.19
2022-08-25T10:08:26.207Z,33.16
2022-08-25T10:11:57.450Z,33.22
2022-08-25T10:15:34.230Z,33.29
2022-08-25T10:18:55.201Z,33.27
2022-08-25T10:22:25.190Z,33.32
2022-08-25T10:25:57.806Z,33.40
2022-08-25T10:29:25.189Z,33.66
2022-08-25T10:32:58.205Z,33.85
2022-08-25T10:36:29.248Z,34.01
2022-08-25T10:39:59.228Z,34.05
2022-08-25T10:43:44.234Z,34.14
2022-08-25T10:47:16.200Z,34.01
2022-08-25T10:51:12.614Z,33.62
2022-08-25T10:54:40.190Z,33.42
2022-08-25T10:58:30.773Z,33.21
2022-08-25T11:02:24.227Z,33.15
2022-08-25T11:06:10.207Z,33.17
2022-08-25T11:09:39.252Z,33.24
2022-08-25T11:13:11.368Z,33.16
2022-08-25T11:16:41.279Z,33.22
2022-08-25T11:20:07.198Z,33.49
2022-08-25T11:23:36.214Z,33.87
2022-08-25T11:27:07.211Z,34.16
2022-08-25T11:30:31.286Z,34.27
2022-08-25T11:33:52.212Z,34.40
2022-08-25T11:37:44.223Z,34.62
2022-08-25T11:41:25.203Z,34.61
2022-08-25T11:45:20.266Z,34.62
2022-08-25T11:49:08.227Z,34.47
2022-08-25T11:52:47.202Z,34.32
2022-08-25T11:56:12.240Z,34.17
2022-08-25T12:00:06.236Z,33.88
2022-08-25T12:04:00.304Z,33.72
2022-08-25T12:07:22.020Z,33.61
2022-08-25T12:11:11.166Z,33.77
2022-08-25T12:14:38.233Z,34.08
2022-08-25T12:17:59.312Z,34.36
2022-08-25T12:21:20.249Z,34.44
2022-08-25T12:24:57.232Z,34.50
2022-08-25T12:28:35.237Z,34.55
2022-08-25T12:32:13.232Z,34.50
2022-08-25T12:35:38.251Z,34.44
2022-08-25T12:39:03.223Z,34.57
2022-08-25T12:42:37.811Z,34.79
2022-08-25T12:46:36.236Z,35.47
2022-08-25T12:49:57.234Z,37.53
2022-08-25T12:53:42.240Z,39.28
2022-08-25T12:57:14.226Z,40.40
2022-08-25T13:00:40.282Z,40.83
2022-08-25T13:04:44.234Z,41.26
2022-08-25T13:08:05.391Z,41.57
2022-08-25T13:11:57.218Z,41.76
2022-08-25T13:15:18.247Z,42.05
2022-08-25T13:18:42.232Z,42.95
2022-08-25T13:22:03.279Z,43.36
2022-08-25T13:25:35.262Z,43.31
2022-08-25T13:29:09.181Z,43.13
2022-08-25T13:32:40.307Z,43.14
2022-08-25T13:36:22.246Z,43.39
2022-08-25T13:39:56.483Z,43.95
2022-08-25T13:43:27.568Z,44.36
2022-08-25T13:46:48.289Z,44.76
2022-08-25T13:50:30.268Z,44.45
2022-08-25T13:53:52.307Z,44.51
2022-08-25T13:57:31.237Z,44.50
2022-08-25T14:00:59.542Z,44.22
2022-08-25T14:04:51.741Z,44.19
2022-08-25T14:08:23.361Z,44.49
2022-08-25T14:12:11.259Z,44.17
2022-08-25T14:15:33.433Z,44.16
2022-08-25T14:19:08.270Z,44.27
2022-08-25T14:22:29.288Z,44.30
2022-08-25T14:25:50.271Z,44.59
2022-08-25T14:29:11.330Z,44.63
2022-08-25T14:32:32.281Z,44.53
2022-08-25T14:35:57.258Z,44.03
2022-08-25T14:39:18.262Z,44.20
2022-08-25T14:42:39.274Z,44.32
2022-08-25T14:46:02.579Z,44.19
2022-08-25T14:49:27.254Z,43.91
2022-08-25T14:52:48.293Z,43.45
2022-08-25T14:56:14.305Z,43.49
2022-08-25T14:59:35.262Z,43.66
2022-08-25T15:02:58.270Z,43.77
2022-08-25T15:06:19.349Z,43.81
2022-08-25T15:09:40.261Z,43.61
2022-08-25T15:13:01.261Z,43.40
2022-08-25T15:16:24.321Z,43.28
2022-08-25T15:19:56.308Z,43.16
2022-08-25T15:23:17.292Z,42.53
2022-08-25T15:26:38.322Z,41.98
2022-08-25T15:29:59.328Z,41.28
2022-08-25T15:33:29.279Z,40.72
2022-08-25T15:36:51.294Z,40.56
2022-08-25T15:40:12.373Z,40.48
2022-08-25T15:43:33.310Z,40.16
2022-08-25T15:46:56.264Z,39.27
2022-08-25T15:50:26.201Z,37.59
2022-08-25T15:53:48.342Z,36.04
2022-08-25T15:57:13.964Z,34.93
2022-08-25T16:00:45.299Z,34.11
2022-08-25T16:04:17.274Z,33.49
2022-08-25T16:07:38.272Z,33.02
2022-08-25T16:10:59.293Z,32.58
2022-08-25T16:14:21.262Z,32.22
2022-08-25T16:17:43.643Z,31.88
2022-08-25T16:21:06.287Z,31.56
2022-08-25T16:24:33.334Z,31.25
2022-08-25T16:27:59.296Z,30.95
2022-08-25T16:31:23.331Z,30.66
2022-08-25T16:34:45.321Z,30.39
2022-08-25T16:38:08.291Z,30.17
2022-08-25T16:41:40.312Z,29.96
2022-08-25T16:45:02.310Z,29.77
2022-08-25T16:48:26.338Z,29.55
2022-08-25T16:51:49.293Z,29.34
2022-08-25T16:55:21.294Z,29.15
2022-08-25T16:58:43.299Z,28.99
2022-08-25T17:02:07.374Z,28.83
2022-08-25T17:05:28.284Z,28.67
2022-08-25T17:08:50.306Z,28.52
2022-08-25T17:12:11.296Z,28.40
2022-08-25T17:15:32.332Z,28.24
2022-08-25T17:18:53.292Z,28.12
2022-08-25T17:22:15.316Z,27.99
2022-08-25T17:25:36.304Z,27.89
2022-08-25T17:28:55.315Z,27.81
2022-08-25T17:32:17.298Z,27.73
2022-08-25T17:35:38.307Z,27.63
2022-08-25T17:38:59.294Z,27.57
2022-08-25T17:42:20.349Z,27.50
2022-08-25T17:46:01.342Z,27.41
2022-08-25T17:49:24.324Z,27.35
2022-08-25T17:52:46.461Z,27.30
2022-08-25T17:56:17.330Z,27.25
2022-08-25T17:59:39.327Z,27.22
2022-08-25T18:03:01.338Z,27.17
2022-08-25T18:06:22.375Z,27.12
2022-08-25T18:09:43.323Z,27.08
2022-08-25T18:13:04.339Z,27.07
2022-08-25T18:16:26.334Z,27.05
2022-08-25T18:19:47.334Z,27.03
2022-08-25T18:23:09.823Z,26.97
2022-08-25T18:26:31.352Z,26.92
2022-08-25T18:29:52.329Z,26.87
2022-08-25T18:33:13.345Z,26.83
2022-08-25T18:36:38.674Z,26.80
2022-08-25T18:40:18.416Z,26.78
2022-08-25T18:43:39.325Z,26.69
2022-08-25T18:47:00.350Z,26.60
2022-08-25T18:50:28.334Z,26.50
2022-08-25T18:53:50.244Z,26.41
2022-08-25T18:57:11.326Z,26.31
2022-08-25T19:00:35.334Z,26.23
2022-08-25T19:03:56.364Z,26.20
2022-08-25T19:07:19.356Z,26.12
2022-08-25T19:10:42.343Z,26.04
2022-08-25T19:14:04.347Z,26.03
2022-08-25T19:17:37.426Z,26.00
2022-08-25T19:20:51.386Z,26.02
2022-08-25T19:24:13.390Z,26.03
2022-08-25T19:27:34.351Z,26.05
2022-08-25T19:30:55.402Z,26.04
2022-08-25T19:34:16.347Z,25.98
2022-08-25T19:37:39.354Z,25.90
2022-08-25T19:41:01.356Z,25.86
2022-08-25T19:44:23.365Z,25.76
2022-08-25T19:47:48.342Z,25.69
2022-08-25T19:51:09.372Z,25.59
2022-08-25T19:54:44.396Z,25.50
2022-08-25T19:58:05.350Z,25.41
2022-08-25T20:01:26.469Z,25.32
2022-08-25T20:04:49.394Z,25.22
2022-08-25T20:08:12.363Z,25.15
2022-08-25T20:11:33.362Z,25.09
2022-08-25T20:14:54.363Z,25.03
2022-08-25T20:18:15.376Z,24.99
2022-08-25T20:21:37.605Z,24.90
2022-08-25T20:24:58.689Z,24.85
2022-08-25T20:28:19.389Z,24.79
2022-08-25T20:31:40.377Z,24.76
2022-08-25T20:35:02.405Z,24.72
2022-08-25T20:38:24.373Z,24.68
2022-08-25T20:41:48.242Z,24.65
2022-08-25T20:45:09.376Z,24.62
2022-08-25T20:48:30.404Z,24.59
2022-08-25T20:51:51.377Z,24.56
2022-08-25T20:55:12.441Z,24.54
2022-08-25T20:58:33.372Z,24.52
2022-08-25T21:01:55.469Z,24.49
2022-08-25T21:05:16.366Z,24.45
2022-08-25T21:08:37.396Z,24.45
2022-08-25T21:12:08.429Z,24.43
2022-08-25T21:15:29.392Z,24.39
2022-08-25T21:18:50.404Z,24.35
2022-08-25T21:22:12.404Z,24.27
2022-08-25T21:25:33.387Z,24.20
2022-08-25T21:28:54.395Z,24.13
2022-08-25T21:32:09.392Z,24.09
2022-08-25T21:35:30.404Z,24.04
2022-08-25T21:38:51.388Z,24.00
2022-08-25T21:42:13.451Z,23.92
2022-08-25T21:45:35.933Z,23.86
2022-08-25T21:48:57.411Z,23.84
2022-08-25T21:52:21.393Z,23.80
2022-08-25T21:55:42.395Z,23.72
2022-08-25T21:59:03.386Z,23.70
2022-08-25T22:02:33.451Z,23.66
2022-08-25T22:05:55.392Z,23.62
2022-08-25T22:09:21.386Z,23.56
2022-08-25T22:12:42.380Z,23.50
2022-08-25T22:16:03.444Z,23.44
2022-08-25T22:19:28.429Z,23.41
2022-08-25T22:22:49.424Z,23.39
2022-08-25T22:26:10.437Z,23.35
2022-08-25T22:29:32.412Z,23.34
2022-08-25T22:32:46.413Z,23.33
2022-08-25T22:36:07.406Z,23.31
2022-08-25T22:39:31.422Z,23.29
2022-08-25T22:42:52.443Z,23.24
2022-08-25T22:46:15.448Z,23.23
2022-08-25T22:49:42.415Z,23.23
2022-08-25T22:53:04.502Z,23.22
2022-08-25T22:56:27.414Z,23.17
2022-08-25T22:59:48.426Z,23.16
2022-08-25T23:03:11.493Z,23.15
2022-08-25T23:06:35.426Z,23.11
2022-08-25T23:09:56.417Z,23.10
2022-08-25T23:13:33.863Z,23.06
2022-08-25T23:16:56.463Z,23.02
2022-08-25T23:20:37.442Z,22.97
2022-08-25T23:24:07.428Z,22.88
2022-08-25T23:27:24.435Z,22.86
2022-08-25T23:30:54.549Z,22.85
2022-08-25T23:34:20.442Z,22.79
2022-08-25T23:37:34.465Z,22.76
2022-08-25T23:40:56.476Z,22.76
2022-08-25T23:44:18.588Z,22.75
2022-08-25T23:47:39.447Z,22.71
2022-08-25T23:51:01.452Z,22.68
2022-08-25T23:54:31.167Z,22.68
2022-08-25T23:57:52.456Z,22.66
